createdAt,value
2019-04-14T00:01:19.411Z,5.50
2019-04-14T00:03:52.851Z,6.92
2019-04-14T00:06:22.442Z,6.25
2019-04-14T00:08:52.222Z,7.28
2019-04-14T00:11:21.296Z,6.33
2019-04-14T00:13:50.296Z,7.10
2019-04-14T00:16:20.662Z,5.70
2019-04-14T00:18:49.598Z,5.65
2019-04-14T00:21:19.387Z,5.35
2019-04-14T00:23:48.524Z,6.92
2019-04-14T00:26:27.207Z,6.55
2019-04-14T00:28:56.278Z,6.40
2019-04-14T00:31:26.252Z,6.10
2019-04-14T00:33:56.647Z,5.87
2019-04-14T00:36:50.305Z,6.60
2019-04-14T00:39:29.406Z,6.40
2019-04-14T00:42:10.820Z,6.75
2019-04-14T00:45:02.827Z,6.80
2019-04-14T00:47:43.136Z,7.35
2019-04-14T00:50:06.311Z,7.20
2019-04-14T00:52:35.263Z,5.95
2019-04-14T00:55:23.383Z,6.67
2019-04-14T00:57:52.987Z,6.50
2019-04-14T01:00:23.175Z,7.03
2019-04-14T01:05:21.660Z,6.50
2019-04-14T01:08:12.009Z,6.70
2019-04-14T01:10:41.224Z,6.80
2019-04-14T01:13:11.649Z,6.12
2019-04-14T01:15:51.278Z,7.37
2019-04-14T01:18:12.577Z,6.78
2019-04-14T01:20:42.737Z,6.78
2019-04-14T01:23:12.894Z,6.12
2019-04-14T01:25:43.147Z,6.65
2019-04-14T01:28:12.251Z,6.37
2019-04-14T01:30:41.605Z,7.15
2019-04-14T01:33:11.785Z,7.10
2019-04-14T01:35:42.047Z,6.47
2019-04-14T01:38:12.441Z,6.05
2019-04-14T01:40:42.434Z,7.62
2019-04-14T01:43:12.375Z,6.75
2019-04-14T01:45:42.524Z,6.17
2019-04-14T01:48:12.646Z,7.60
2019-04-14T01:51:00.553Z,5.65
2019-04-14T01:53:48.871Z,6.50
2019-04-14T01:56:34.071Z,6.00
2019-04-14T01:59:04.439Z,7.70
2019-04-14T02:04:03.639Z,7.45
2019-04-14T02:06:34.029Z,6.03
2019-04-14T02:09:05.405Z,7.08
2019-04-14T02:11:35.568Z,6.50
2019-04-14T02:14:06.030Z,5.83
2019-04-14T02:19:04.681Z,5.58
2019-04-14T02:21:34.571Z,7.65
2019-04-14T02:24:04.835Z,6.00
2019-04-14T02:29:03.502Z,6.03
2019-04-14T02:32:01.455Z,6.15
2019-04-14T02:34:34.914Z,7.10
2019-04-14T02:37:04.544Z,6.30
2019-04-14T02:42:17.364Z,7.45
2019-04-14T02:44:38.060Z,5.90
2019-04-14T02:49:39.018Z,5.83
2019-04-14T02:52:04.353Z,6.42
2019-04-14T02:54:47.495Z,6.00
2019-04-14T02:57:14.772Z,5.87
2019-04-14T02:59:45.567Z,5.50
2019-04-14T03:02:27.510Z,5.60
2019-04-14T03:07:14.385Z,6.00
2019-04-14T03:09:43.663Z,6.78
2019-04-14T03:12:09.150Z,6.15
2019-04-14T03:20:22.471Z,6.10
2019-04-14T03:25:45.392Z,6.08
2019-04-14T03:31:37.554Z,5.97
2019-04-14T03:43:43.109Z,5.40
2019-04-14T03:46:36.145Z,6.12
2019-04-14T03:56:33.453Z,5.28
2019-04-14T03:59:02.502Z,5.72
2019-04-14T04:01:32.340Z,5.22
2019-04-14T04:04:01.243Z,4.75
2019-04-14T04:06:31.255Z,5.25
2019-04-14T04:09:00.253Z,5.28
2019-04-14T04:11:30.117Z,5.60
2019-04-14T04:13:59.246Z,5.53
2019-04-14T04:16:50.793Z,5.15
2019-04-14T04:19:57.782Z,5.60
2019-04-14T04:22:45.622Z,5.90
2019-04-14T04:25:22.593Z,5.62
2019-04-14T04:28:29.888Z,5.85
2019-04-14T04:31:18.004Z,5.75
2019-04-14T04:34:09.805Z,5.60
2019-04-14T04:36:57.831Z,5.33
2019-04-14T04:39:47.571Z,5.67
2019-04-14T04:42:17.555Z,6.30
2019-04-14T04:44:46.800Z,6.37
2019-04-14T04:47:16.647Z,5.28
2019-04-14T04:49:46.859Z,5.60
2019-04-14T04:52:17.284Z,5.37
2019-04-14T05:00:02.960Z,5.50
2019-04-14T05:02:33.176Z,6.67
2019-04-14T05:05:03.521Z,5.20
2019-04-14T05:10:18.208Z,5.53
2019-04-14T05:12:50.562Z,5.87
2019-04-14T05:15:42.404Z,5.55
2019-04-14T05:18:22.313Z,5.92
2019-04-14T05:20:51.247Z,6.62
2019-04-14T05:23:21.379Z,5.78
2019-04-14T05:28:19.843Z,6.10
2019-04-14T05:36:25.998Z,5.72
2019-04-14T05:38:55.971Z,5.92
2019-04-14T05:41:26.449Z,6.05
2019-04-14T05:46:25.367Z,5.97
2019-04-14T05:48:54.258Z,6.40
2019-04-14T05:51:24.877Z,5.97
2019-04-14T05:53:54.498Z,5.70
2019-04-14T05:56:23.719Z,6.72
2019-04-14T05:58:53.767Z,5.70
2019-04-14T06:01:22.770Z,6.28
2019-04-14T06:03:51.857Z,5.58
2019-04-14T06:06:20.768Z,7.33
2019-04-14T06:08:49.820Z,5.50
2019-04-14T06:11:18.779Z,6.70
2019-04-14T06:13:47.901Z,6.25
2019-04-14T06:16:16.763Z,5.87
2019-04-14T06:18:45.807Z,6.55
2019-04-14T06:21:14.833Z,6.22
2019-04-14T06:23:43.944Z,5.97
2019-04-14T06:26:12.805Z,6.40
2019-04-14T06:28:41.681Z,6.05
2019-04-14T06:31:37.116Z,6.53
2019-04-14T06:34:24.940Z,5.95
2019-04-14T06:37:01.464Z,6.25
2019-04-14T06:39:51.156Z,6.72
2019-04-14T06:42:19.983Z,6.10
2019-04-14T06:44:48.954Z,5.95
2019-04-14T06:47:17.946Z,5.90
2019-04-14T06:49:49.211Z,5.90
2019-04-14T06:52:17.909Z,5.83
2019-04-14T06:54:47.053Z,5.60
2019-04-14T06:57:15.927Z,5.67
2019-04-14T06:59:44.897Z,6.60
2019-04-14T07:02:13.920Z,6.00
2019-04-14T07:04:43.105Z,5.78
2019-04-14T07:07:12.299Z,6.45
2019-04-14T07:09:41.136Z,5.83
2019-04-14T07:12:10.179Z,6.33
2019-04-14T07:14:39.264Z,6.25
2019-04-14T07:17:08.119Z,6.25
2019-04-14T07:19:37.147Z,6.03
2019-04-14T07:22:06.195Z,6.33
2019-04-14T07:24:35.195Z,6.25
2019-04-14T07:27:04.080Z,6.35
2019-04-14T07:29:39.633Z,6.40
2019-04-14T07:32:30.587Z,6.08
2019-04-14T07:35:23.719Z,6.40
2019-04-14T07:38:12.878Z,5.87
2019-04-14T07:41:15.757Z,6.60
2019-04-14T07:43:55.390Z,6.03
2019-04-14T07:46:45.946Z,6.35
2019-04-14T07:49:36.958Z,6.40
2019-04-14T07:52:23.576Z,6.10
2019-04-14T07:55:07.062Z,5.60
2019-04-14T07:58:00.786Z,6.00
2019-04-14T08:00:40.114Z,5.95
2019-04-14T08:03:16.798Z,6.25
2019-04-14T08:05:45.730Z,6.00
2019-04-14T08:08:14.837Z,6.15
2019-04-14T08:10:43.830Z,6.22
2019-04-14T08:13:12.834Z,6.20
2019-04-14T08:15:41.965Z,6.22
2019-04-14T08:18:10.822Z,6.45
2019-04-14T08:20:39.688Z,6.45
2019-04-14T08:23:08.674Z,6.65
2019-04-14T08:25:37.551Z,6.25
2019-04-14T08:28:06.444Z,6.70
2019-04-14T08:30:35.484Z,6.35
2019-04-14T08:33:04.507Z,5.75
2019-04-14T08:35:33.438Z,6.28
2019-04-14T08:38:02.553Z,6.58
2019-04-14T08:40:31.549Z,6.62
2019-04-14T08:43:19.429Z,6.45
2019-04-14T08:46:10.621Z,6.33
2019-04-14T08:48:52.556Z,6.20
2019-04-14T08:51:33.061Z,5.87
2019-04-14T08:54:13.002Z,6.08
2019-04-14T08:56:50.079Z,5.97
2019-04-14T08:59:32.623Z,6.03
2019-04-14T09:02:23.683Z,6.37
2019-04-14T09:05:11.626Z,6.28
2019-04-14T09:07:45.921Z,6.08
2019-04-14T09:10:21.710Z,6.47
2019-04-14T09:12:51.827Z,6.33
2019-04-14T09:15:20.781Z,6.75
2019-04-14T09:17:49.721Z,7.17
2019-04-14T09:20:18.761Z,6.50
2019-04-14T09:22:47.736Z,6.92
2019-04-14T09:25:16.676Z,6.05
2019-04-14T09:27:45.764Z,6.90
2019-04-14T09:30:15.339Z,6.60
2019-04-14T09:32:44.295Z,7.17
2019-04-14T09:35:33.795Z,6.80
2019-04-14T09:38:02.762Z,6.93
2019-04-14T09:40:31.907Z,6.50
2019-04-14T09:43:00.974Z,7.10
2019-04-14T09:45:29.898Z,6.95
2019-04-14T09:47:58.891Z,7.10
2019-04-14T09:50:27.796Z,6.92
2019-04-14T09:52:56.815Z,7.45
2019-04-14T09:55:25.988Z,7.30
2019-04-14T09:57:54.944Z,7.17
2019-04-14T10:00:23.994Z,7.65
2019-04-14T10:02:52.979Z,6.95
2019-04-14T10:05:21.934Z,6.83
2019-04-14T10:07:51.187Z,7.08
2019-04-14T10:10:20.205Z,7.40
2019-04-14T10:12:49.216Z,7.65
2019-04-14T10:15:18.136Z,7.12
2019-04-14T10:17:47.050Z,6.85
2019-04-14T10:20:15.961Z,7.25
2019-04-14T10:22:44.942Z,7.28
2019-04-14T10:25:13.853Z,7.80
2019-04-14T10:27:42.870Z,8.73
2019-04-14T10:30:12.038Z,8.00
2019-04-14T10:32:41.103Z,8.28
2019-04-14T10:35:10.094Z,8.45
2019-04-14T10:37:39.101Z,8.33
2019-04-14T10:40:08.163Z,7.20
2019-04-14T10:42:39.240Z,7.62
2019-04-14T10:45:08.235Z,8.00
2019-04-14T10:47:37.191Z,8.15
2019-04-14T10:50:06.339Z,8.08
2019-04-14T10:52:35.300Z,8.60
2019-04-14T10:55:04.757Z,7.90
2019-04-14T10:57:33.681Z,8.17
2019-04-14T11:00:02.693Z,8.48
2019-04-14T11:02:31.627Z,8.25
2019-04-14T11:05:00.514Z,7.85
2019-04-14T11:07:31.057Z,8.33
2019-04-14T11:10:00.191Z,8.40
2019-04-14T11:12:29.173Z,8.03
2019-04-14T11:14:58.026Z,8.25
2019-04-14T11:17:27.551Z,8.45
2019-04-14T11:19:58.089Z,8.18
2019-04-14T11:22:27.035Z,8.03
2019-04-14T11:24:56.337Z,9.20
2019-04-14T11:27:25.393Z,8.10
2019-04-14T11:29:54.416Z,8.78
2019-04-14T11:32:40.754Z,7.80
2019-04-14T11:35:31.802Z,8.58
2019-04-14T11:38:25.894Z,8.65
2019-04-14T11:40:57.235Z,8.03
2019-04-14T11:43:26.540Z,9.48
2019-04-14T11:45:55.488Z,8.88
2019-04-14T11:48:24.705Z,8.40
2019-04-14T11:50:53.722Z,9.30
2019-04-14T11:53:22.730Z,8.70
2019-04-14T11:55:51.579Z,9.05
2019-04-14T11:58:20.494Z,8.10
2019-04-14T12:01:11.580Z,9.28
2019-04-14T12:03:56.076Z,9.65
2019-04-14T12:06:33.351Z,9.25
2019-04-14T12:09:20.536Z,8.65
2019-04-14T12:11:49.526Z,8.70
2019-04-14T12:14:18.694Z,9.35
2019-04-14T12:16:47.720Z,8.40
2019-04-14T12:19:16.731Z,8.58
2019-04-14T12:21:45.715Z,8.63
2019-04-14T12:24:14.711Z,8.70
2019-04-14T12:26:43.738Z,8.08
2019-04-14T12:29:13.973Z,9.15
2019-04-14T12:31:44.099Z,8.58
2019-04-14T12:34:13.184Z,8.83
2019-04-14T12:36:42.162Z,8.85
2019-04-14T12:39:18.657Z,8.10
2019-04-14T12:41:52.399Z,8.65
2019-04-14T12:44:40.906Z,8.75
2019-04-14T12:47:27.138Z,8.15
2019-04-14T12:49:58.552Z,8.33
2019-04-14T12:52:28.327Z,8.75
2019-04-14T12:54:57.607Z,7.70
2019-04-14T12:57:35.512Z,9.93
2019-04-14T13:00:07.306Z,8.43
2019-04-14T13:02:38.398Z,7.58
2019-04-14T13:05:07.300Z,8.50
2019-04-14T13:07:36.947Z,7.85
2019-04-14T13:10:07.247Z,8.70
2019-04-14T13:12:36.376Z,8.25
2019-04-14T13:15:05.881Z,8.43
2019-04-14T13:17:34.850Z,8.53
2019-04-14T13:20:03.944Z,8.45
2019-04-14T13:22:34.317Z,8.38
2019-04-14T13:25:03.489Z,8.38
2019-04-14T13:27:32.503Z,8.63
2019-04-14T13:30:01.498Z,7.50
2019-04-14T13:32:36.127Z,8.03
2019-04-14T13:35:01.078Z,8.25
2019-04-14T13:37:30.013Z,7.55
2019-04-14T13:39:59.077Z,7.67
2019-04-14T13:42:28.035Z,8.70
2019-04-14T13:44:58.124Z,7.75
2019-04-14T13:47:27.011Z,7.95
2019-04-14T13:49:56.078Z,7.15
2019-04-14T13:52:25.225Z,7.60
2019-04-14T13:54:54.192Z,7.87
2019-04-14T13:57:23.136Z,7.92
2019-04-14T13:59:52.173Z,7.37
2019-04-14T14:02:21.190Z,7.35
2019-04-14T14:04:50.149Z,7.70
2019-04-14T14:07:19.171Z,8.33
2019-04-14T14:09:48.243Z,7.97
2019-04-14T14:12:24.020Z,8.03
2019-04-14T14:15:10.748Z,8.75
2019-04-14T14:18:02.077Z,7.85
2019-04-14T14:20:50.122Z,7.97
2019-04-14T14:23:36.489Z,6.55
2019-04-14T14:26:08.850Z,8.80
2019-04-14T14:28:38.783Z,8.43
2019-04-14T14:31:08.001Z,7.70
2019-04-14T14:33:37.075Z,7.92
2019-04-14T14:36:06.211Z,9.70
2019-04-14T14:38:35.187Z,7.87
2019-04-14T14:41:06.641Z,8.85
2019-04-14T14:43:35.500Z,8.38
2019-04-14T14:46:41.675Z,8.18
2019-04-14T14:49:15.395Z,8.48
2019-04-14T14:51:50.279Z,8.23
2019-04-14T14:54:19.319Z,8.03
2019-04-14T14:56:48.211Z,8.48
2019-04-14T14:59:17.337Z,7.83
2019-04-14T15:01:46.426Z,8.40
2019-04-14T15:04:15.441Z,8.68
2019-04-14T15:06:44.461Z,8.18
2019-04-14T15:09:13.354Z,8.05
2019-04-14T15:11:42.191Z,7.78
2019-04-14T15:14:11.056Z,7.42
2019-04-14T15:16:40.215Z,8.15
2019-04-14T15:19:09.235Z,7.12
2019-04-14T15:21:38.511Z,7.00
2019-04-14T15:24:07.479Z,7.15
2019-04-14T15:26:36.271Z,7.60
2019-04-14T15:29:05.343Z,7.45
2019-04-14T15:31:34.484Z,6.95
2019-04-14T15:34:03.402Z,7.20
2019-04-14T15:36:32.330Z,7.25
2019-04-14T15:39:01.570Z,7.28
2019-04-14T15:41:30.670Z,6.55
2019-04-14T15:43:59.678Z,6.03
2019-04-14T15:46:28.647Z,6.87
2019-04-14T15:48:57.758Z,6.58
2019-04-14T15:51:27.026Z,6.47
2019-04-14T15:53:56.211Z,6.20
2019-04-14T15:59:32.570Z,5.83
2019-04-14T16:02:12.136Z,6.08
2019-04-14T16:04:46.547Z,5.75
2019-04-14T16:07:33.134Z,6.25
2019-04-14T16:10:08.678Z,5.65
2019-04-14T16:12:50.857Z,6.25
2019-04-14T16:15:41.813Z,4.83
2019-04-14T16:18:25.842Z,5.87
2019-04-14T16:20:54.861Z,5.50
2019-04-14T16:23:23.887Z,5.65
2019-04-14T16:26:10.291Z,4.62
2019-04-14T16:28:53.043Z,5.62
2019-04-14T16:31:39.697Z,4.80
2019-04-14T16:34:14.832Z,5.15
2019-04-14T16:36:44.877Z,5.17
2019-04-14T16:39:13.900Z,4.87
2019-04-14T16:41:43.042Z,4.60
2019-04-14T16:44:11.967Z,5.03
2019-04-14T16:46:41.053Z,5.22
2019-04-14T16:49:10.023Z,4.37
2019-04-14T16:51:47.035Z,5.22
2019-04-14T16:54:23.800Z,4.53
2019-04-14T16:57:14.428Z,4.65
2019-04-14T16:59:43.457Z,4.78
2019-04-14T17:02:12.594Z,4.78
2019-04-14T17:04:41.643Z,4.50
2019-04-14T17:07:10.617Z,4.33
2019-04-14T17:09:39.597Z,4.62
2019-04-14T17:12:08.614Z,4.30
2019-04-14T17:14:42.658Z,4.83
2019-04-14T17:17:25.633Z,4.30
2019-04-14T17:20:02.498Z,4.60
2019-04-14T17:22:44.304Z,4.85
2019-04-14T17:25:32.214Z,4.85
2019-04-14T17:28:26.310Z,5.12
2019-04-14T17:31:05.339Z,4.37
2019-04-14T17:33:56.104Z,4.53
2019-04-14T17:36:41.256Z,4.50
2019-04-14T17:39:32.186Z,4.25
2019-04-14T17:42:23.394Z,4.25
2019-04-14T17:45:11.298Z,4.60
2019-04-14T17:47:59.318Z,4.40
2019-04-14T17:51:03.472Z,4.17
2019-04-14T17:53:38.373Z,4.80
2019-04-14T17:56:26.059Z,4.25
2019-04-14T17:59:23.086Z,4.40
2019-04-14T18:02:05.638Z,4.08
2019-04-14T18:04:39.710Z,4.55
2019-04-14T18:07:21.747Z,4.90
2019-04-14T18:09:57.150Z,4.37
2019-04-14T18:12:39.557Z,4.90
2019-04-14T18:15:27.444Z,4.53
2019-04-14T18:18:13.839Z,4.70
2019-04-14T18:20:46.195Z,4.72
2019-04-14T18:23:15.210Z,4.62
2019-04-14T18:25:44.226Z,4.60
2019-04-14T18:28:24.982Z,4.50
2019-04-14T18:31:06.074Z,4.30
2019-04-14T18:33:44.288Z,4.67
2019-04-14T18:36:26.150Z,4.33
2019-04-14T18:39:10.854Z,5.10
2019-04-14T18:41:53.851Z,5.17
2019-04-14T18:44:39.425Z,5.03
2019-04-14T18:47:37.704Z,4.90
2019-04-14T18:50:31.030Z,4.92
2019-04-14T18:53:09.583Z,5.00
2019-04-14T18:55:57.419Z,5.08
2019-04-14T18:58:51.009Z,4.45
2019-04-14T19:01:22.249Z,5.70
2019-04-14T19:03:51.341Z,5.28
2019-04-14T19:06:20.235Z,5.08
2019-04-14T19:08:50.038Z,4.87
2019-04-14T19:11:38.398Z,5.03
2019-04-14T19:14:07.634Z,5.15
2019-04-14T19:16:43.569Z,5.45
2019-04-14T19:19:12.875Z,6.33
2019-04-14T19:21:41.835Z,6.03
2019-04-14T19:24:10.720Z,4.85
2019-04-14T19:26:39.727Z,4.97
2019-04-14T19:29:08.748Z,5.90
2019-04-14T19:31:37.942Z,5.40
2019-04-14T19:34:06.958Z,5.35
2019-04-14T19:36:36.048Z,6.00
2019-04-14T19:39:10.019Z,5.85
2019-04-14T19:41:39.002Z,5.45
2019-04-14T19:44:08.031Z,5.20
2019-04-14T19:46:37.005Z,6.40
2019-04-14T19:49:05.969Z,5.72
2019-04-14T19:51:34.842Z,4.95
2019-04-14T19:54:03.849Z,5.92
2019-04-14T19:56:32.781Z,5.60
2019-04-14T19:59:02.174Z,4.97
2019-04-14T20:01:31.151Z,6.03
2019-04-14T20:04:00.162Z,5.62
2019-04-14T20:06:29.153Z,6.47
2019-04-14T20:08:58.198Z,5.20
2019-04-14T20:11:27.346Z,5.20
2019-04-14T20:13:56.262Z,5.58
2019-04-14T20:16:44.172Z,6.00
2019-04-14T20:19:32.195Z,5.72
2019-04-14T20:22:15.978Z,6.87
2019-04-14T20:24:51.717Z,5.97
2019-04-14T20:27:33.839Z,5.78
2019-04-14T20:30:07.353Z,5.80
2019-04-14T20:32:37.752Z,6.83
2019-04-14T20:37:35.414Z,5.78
2019-04-14T20:40:04.718Z,5.95
2019-04-14T20:42:33.625Z,5.62
2019-04-14T20:45:05.826Z,5.42
2019-04-14T20:47:34.898Z,5.78
2019-04-14T20:50:03.927Z,6.05
2019-04-14T20:52:32.926Z,6.12
2019-04-14T20:55:01.962Z,6.50
2019-04-14T20:57:30.858Z,5.30
2019-04-14T21:00:01.031Z,6.62
2019-04-14T21:02:52.003Z,6.60
2019-04-14T21:05:55.283Z,5.75
2019-04-14T21:08:46.138Z,7.22
2019-04-14T21:11:19.030Z,5.80
2019-04-14T21:14:05.804Z,5.62
2019-04-14T21:16:42.063Z,7.08
2019-04-14T21:19:32.831Z,6.45
2019-04-14T21:22:20.401Z,7.30
2019-04-14T21:25:08.529Z,6.08
2019-04-14T21:27:47.210Z,7.50
2019-04-14T21:30:35.173Z,6.80
2019-04-14T21:33:32.252Z,7.00
2019-04-14T21:36:10.688Z,7.67
2019-04-14T21:39:01.423Z,7.42
2019-04-14T21:41:30.888Z,6.22
2019-04-14T21:44:00.278Z,7.03
2019-04-14T21:46:29.338Z,7.10
2019-04-14T21:48:58.475Z,8.55
2019-04-14T21:51:46.594Z,7.42
2019-04-14T21:54:16.024Z,7.78
2019-04-14T21:56:46.498Z,7.60
2019-04-14T21:59:20.696Z,6.47
2019-04-14T22:02:07.069Z,6.42
2019-04-14T22:05:06.674Z,6.90
2019-04-14T22:07:49.631Z,7.65
2019-04-14T22:10:21.944Z,7.50
2019-04-14T22:12:50.802Z,8.63
2019-04-14T22:15:19.911Z,7.20
2019-04-14T22:17:48.972Z,7.05
2019-04-14T22:20:17.875Z,7.62
2019-04-14T22:22:46.724Z,8.60
2019-04-14T22:25:15.839Z,7.08
2019-04-14T22:27:44.748Z,6.85
2019-04-14T22:30:13.680Z,7.62
2019-04-14T22:32:42.706Z,9.53
2019-04-14T22:35:11.723Z,8.23
2019-04-14T22:37:40.844Z,7.25
2019-04-14T22:40:09.855Z,7.62
2019-04-14T22:42:38.982Z,8.38
2019-04-14T22:45:07.973Z,8.75
2019-04-14T22:47:36.800Z,9.75
2019-04-14T22:50:05.811Z,7.08
2019-04-14T22:52:34.903Z,9.15
2019-04-14T22:55:04.176Z,8.30
2019-04-14T22:57:52.240Z,9.25
2019-04-14T23:03:31.054Z,9.38
2019-04-14T23:06:09.071Z,10.08
2019-04-14T23:08:42.081Z,10.23
2019-04-14T23:11:18.304Z,10.45
2019-04-14T23:14:09.022Z,8.93
2019-04-14T23:16:57.636Z,10.65
2019-04-14T23:19:37.005Z,11.15
2019-04-14T23:22:32.307Z,9.05
2019-04-14T23:25:01.229Z,11.30
2019-04-14T23:27:30.366Z,10.88
2019-04-14T23:29:59.218Z,11.03
2019-04-14T23:32:28.012Z,10.82
2019-04-14T23:34:56.900Z,10.78
2019-04-14T23:37:25.867Z,10.05
2019-04-14T23:39:54.871Z,10.15
2019-04-14T23:42:23.909Z,9.43
2019-04-14T23:44:52.801Z,10.78
2019-04-14T23:47:21.816Z,11.15
2019-04-14T23:49:50.677Z,11.33
2019-04-14T23:52:19.509Z,10.90
2019-04-14T23:54:48.689Z,10.90
2019-04-14T23:57:17.538Z,11.43
2019-04-14T23:59:46.443Z,11.35
